D/T METAR WX W/SPE G/SPE TEMP DEWP FEEL
31/01/23 06:50 EGSH 310650Z 24015KT CAVOK 06/03 Q1020 NOSIG 17.3mph 6°C 3°C 4.7°C
31/01/23 05:50 EGSH 310550Z 24016KT 9999 BKN043 06/03 Q1020 18.4mph 6°C 3°C 4.7°C
30/01/23 21:50 EGSH 302150Z AUTO 24010KT 9999 NCD 04/02 Q1025 11.5mph 4°C 2°C 2.4°C
30/01/23 12:50 EGSH 301250Z 28017KT 9999 FEW030 09/03 Q1022 19.6mph 9°C 3°C 7.7°C
30/01/23 11:50 EGSH 301150Z 29018KT 9999 FEW030 08/02 Q1022 NOSIG 20.7mph 8°C 2°C 6.4°C
30/01/23 10:50 EGSH 301050Z 28020KT CAVOK 08/02 Q1021 NOSIG 23.0mph 8°C 2°C 6.4°C
30/01/23 10:20 EGSH 301020Z 27017KT CAVOK 07/02 Q1021 NOSIG 19.6mph 7°C 2°C 5.4°C
30/01/23 09:50 EGSH 300950Z 27017KT CAVOK 07/02 Q1021 NOSIG 19.6mph 7°C 2°C 5.4°C
30/01/23 07:50 EGSH 300750Z 26017KT CAVOK 05/01 Q1019 NOSIG 19.6mph 5°C 1°C 3.1°C
30/01/23 06:50 EGSH 300650Z 26018KT CAVOK 05/01 Q1018 20.7mph 5°C 1°C 3.1°C
09/01/23 06:50 EGSH 090650Z 24009KT CAVOK 04/03 Q0992 NOSIG 10.4mph 4°C 3°C 2.7°C
09/01/23 06:20 EGSH 090620Z 23008KT 200V260 CAVOK 04/03 Q0992 NOSIG 9.2mph 4°C 3°C 2.7°C
09/01/23 05:20 EGSH 090520Z AUTO 24007KT 9999 NCD 03/02 Q0991 8.1mph 3°C 2°C 1.4°C
09/01/23 04:50 EGSH 090450Z AUTO 24009KT 9999 NCD 04/03 Q0991 10.4mph 4°C 3°C 2.7°C
09/01/23 04:20 EGSH 090420Z AUTO 24008KT 9999 FEW042/// 04/03 Q0990 9.2mph 4°C 3°C 2.7°C
09/01/23 03:50 EGSH 090350Z AUTO 23008KT 9999 FEW039/// 04/03 Q0990 9.2mph 4°C 3°C 2.7°C
09/01/23 03:20 EGSH 090320Z AUTO 23007KT 200V260 9999 FEW033/// 04/03 Q0990 8.1mph 4°C 3°C 2.7°C
09/01/23 02:50 EGSH 090250Z AUTO 22006KT 9999 FEW030/// 03/03 Q0989 6.9mph 3°C 3°C 1.7°C
09/01/23 01:50 EGSH 090150Z AUTO 19005KT 140V230 9999 BKN036/// BKN046/// 04/03 Q0989 5.8mph 4°C 3°C 2.7°C
09/01/23 01:20 EGSH 090120Z AUTO 19005KT 160V230 9999 FEW036/// BKN043/// 04/03 Q0989 5.8mph 4°C 3°C 2.7°C
09/01/23 00:50 EGSH 090050Z AUTO 18004KT 140V220 9999 BKN034/// BKN040/// 04/03 Q0989 4.6mph 4°C 3°C 2.7°C
09/01/23 00:20 EGSH 090020Z AUTO 19005KT 140V230 9999 NCD 04/03 Q0989 5.8mph 4°C 3°C 2.7°C
08/01/23 23:50 EGSH 082350Z AUTO 18006KT 140V230 9999 NCD 04/03 Q0988 6.9mph 4°C 3°C 2.7°C
08/01/23 23:20 EGSH 082320Z AUTO 19006KT 150V220 9999 NCD 04/03 Q0988 6.9mph 4°C 3°C 2.7°C
08/01/23 22:50 EGSH 082250Z AUTO 20008KT 150V240 9999 NCD 04/03 Q0988 9.2mph 4°C 3°C 2.7°C
08/01/23 21:50 EGSH 082150Z AUTO 21008KT 9999 NCD 05/03 Q0989 9.2mph 5°C 3°C 3.7°C
08/01/23 20:20 EGSH 082020Z 22008KT 9999 BKN025 05/04 Q0988 RESHRA NOSIG 9.2mph 5°C 4°C 4.0°C
08/01/23 19:50 EGSH 081950Z 21009KT 180V240 6000 SHRA BKN012 05/04 Q0988 BECMG 9999 SHRA 10.4mph 5°C 4°C 4.0°C
08/01/23 18:50 EGSH 081850Z 19009KT 150V240 9999 BKN032 07/05 Q0988 TEMPO SHRA 10.4mph 7°C 5°C 6.3°C
08/01/23 18:20 EGSH 081820Z 20008KT 160V240 9999 BKN032 07/05 Q0988 TEMPO RA 9.2mph 7°C 5°C 6.3°C
08/01/23 17:50 EGSH 081750Z 19009KT 160V230 9999 FEW041 07/06 Q0988 NOSIG 10.4mph 7°C 6°C 6.6°C
08/01/23 17:20 EGSH 081720Z 19008KT 150V240 9999 FEW025 07/06 Q0988 TEMPO SHRA 9.2mph 7°C 6°C 6.6°C
08/01/23 16:50 EGSH 081650Z 18009KT 140V230 9999 VCSH SCT023 BKN032 07/06 Q0988 TEMPO SHRA VCSH 10.4mph 7°C 6°C 6.6°C
08/01/23 16:20 EGSH 081620Z 18007KT 120V230 9999 VCSH SCT023 BKN032 07/05 Q0988 TEMPO SHRA VCSH 8.1mph 7°C 5°C 6.3°C
08/01/23 15:20 EGSH 081520Z 17007KT 140V220 9999 -RA SCT012 BKN020 06/05 Q0989 TEMPO RA -RA 8.1mph 6°C 5°C 5.3°C
08/01/23 14:50 EGSH 081450Z 21012G23KT 180V250 8000 3500SE -RA FEW005 SCT010 BKN019CB 06/05 Q0989 RERA TEMPO 4000 RA -RA 13.8mph 26.5mph 6°C 5°C 5.3°C
08/01/23 14:20 EGSH 081420Z 24011KT 200V270 9999 6000W RA FEW007 SCT012 BKN017 07/05 Q0990 RETS RESHRA SHRA RA 12.7mph 7°C 5°C 6.3°C
08/01/23 13:50 EGSH 081350Z 17012G22KT 120V230 9999 SHRA TS SCT016 BKN024 09/06 Q0990 TEMPO NSW SHRA TS 13.8mph 25.3mph 9°C 6°C 8.6°C
08/01/23 13:20 EGSH 081320Z 17010KT 120V220 9999 VCSH SCT016 BKN024 09/06 Q0990 TEMPO RA VCSH 11.5mph 9°C 6°C 8.6°C
08/01/23 12:50 EGSH 081250Z 18011KT 140V220 9999 -RA SCT016 BKN024 09/06 Q0991 TEMPO RA -RA 12.7mph 9°C 6°C 8.6°C
08/01/23 12:20 EGSH 081220Z 19009KT 120V230 9999 SCT018 09/06 Q0992 NOSIG 10.4mph 9°C 6°C 8.6°C
08/01/23 11:50 EGSH 081150Z 19009G19KT 130V240 9999 SCT018 09/06 Q0992 NOSIG 10.4mph 21.9mph 9°C 6°C 8.6°C
08/01/23 11:20 EGSH 081120Z 19009KT 140V230 9999 FEW016 09/06 Q0992 NOSIG 10.4mph 9°C 6°C 8.6°C
08/01/23 10:50 EGSH 081050Z 19010KT 150V240 9999 FEW016 09/06 Q0993 NOSIG 11.5mph 9°C 6°C 8.6°C
08/01/23 10:20 EGSH 081020Z 18010KT 140V240 9999 FEW011 08/06 Q0993 NOSIG 11.5mph 8°C 6°C 7.6°C
08/01/23 09:50 EGSH 080950Z 19011KT 150V230 9999 FEW011 08/05 Q0993 12.7mph 8°C 5°C 7.3°C
08/01/23 09:20 EGSH 080920Z 18008KT 140V230 9999 FEW031 SCT048 07/05 Q0993 9.2mph 7°C 5°C 6.3°C
08/01/23 08:50 EGSH 080850Z 18008KT 130V230 9999 FEW020 SCT044 07/05 Q0994 NOSIG 9.2mph 7°C 5°C 6.3°C
08/01/23 08:20 EGSH 080820Z 18008KT 140V230 9999 FEW046 07/05 Q0994 NOSIG 9.2mph 7°C 5°C 6.3°C
08/01/23 07:50 EGSH 080750Z 18010KT 140V220 CAVOK 07/04 Q0994 11.5mph 7°C 4°C 6.0°C
08/01/23 07:20 EGSH 080720Z 19010KT 140V230 CAVOK 07/05 Q0994 NOSIG 11.5mph 7°C 5°C 6.3°C
08/01/23 06:50 EGSH 080650Z 19009KT 120V220 CAVOK 07/05 Q0994 NOSIG 10.4mph 7°C 5°C 6.3°C
08/01/23 06:20 EGSH 080620Z 19009KT 150V240 CAVOK 07/05 Q0994 NOSIG 10.4mph 7°C 5°C 6.3°C
08/01/23 05:50 EGSH 080550Z 19010KT 140V230 CAVOK 07/05 Q0994 NOSIG 11.5mph 7°C 5°C 6.3°C
08/01/23 05:20 EGSH 080520Z AUTO 18009KT 140V230 9999 NCD 08/05 Q0994 10.4mph 8°C 5°C 7.3°C
08/01/23 04:50 EGSH 080450Z AUTO 19009KT 140V230 9999 NCD 08/06 Q0995 10.4mph 8°C 6°C 7.6°C
08/01/23 04:20 EGSH 080420Z AUTO 18010KT 130V230 9999 NCD 08/06 Q0995 11.5mph 8°C 6°C 7.6°C
08/01/23 03:50 EGSH 080350Z AUTO 19011KT 140V230 9999 NCD 08/05 Q0995 12.7mph 8°C 5°C 7.3°C
08/01/23 03:20 EGSH 080320Z AUTO 19011KT 140V220 9999 NCD 07/05 Q0995 12.7mph 7°C 5°C 6.3°C
08/01/23 02:20 EGSH 080220Z AUTO 19012KT 140V230 9999 NCD 07/05 Q0995 13.8mph 7°C 5°C 6.3°C
08/01/23 01:50 EGSH 080150Z AUTO 19013KT 150V220 9999 NCD 07/05 Q0995 15.0mph 7°C 5°C 6.3°C
08/01/23 00:50 EGSH 080050Z AUTO 19010KT 150V230 9999 NCD 07/04 Q0996 11.5mph 7°C 4°C 6.0°C
08/01/23 00:20 EGSH 080020Z AUTO 19008KT 150V240 9999 NCD 07/04 Q0996 9.2mph 7°C 4°C 6.0°C
07/01/23 23:50 EGSH 072350Z AUTO 20010KT 170V230 9999 NCD 07/04 Q0996 11.5mph 7°C 4°C 6.0°C
07/01/23 23:20 EGSH 072320Z AUTO 20012KT 150V240 9999 NCD 07/04 Q0996 13.8mph 7°C 4°C 6.0°C
07/01/23 22:50 EGSH 072250Z AUTO 20012KT 150V230 9999 NCD 07/04 Q0996 13.8mph 7°C 4°C 6.0°C
07/01/23 21:50 EGSH 072150Z AUTO 21012KT 160V250 9999 NCD 07/04 Q0996 13.8mph 7°C 4°C 6.0°C
07/01/23 21:20 EGSH 072120Z AUTO 21013KT 160V240 9999 FEW031/// 08/05 Q0995 15.0mph 8°C 5°C 7.3°C
07/01/23 20:20 EGSH 072020Z AUTO 21009KT 180V250 9999 SCT017/// SCT022/// BKN028/// 09/06 Q0995 10.4mph 9°C 6°C 8.6°C
07/01/23 19:50 EGSH 071950Z 21013KT 170V240 9999 -RA SCT023 SCT029 BKN037 09/07 Q0995 NOSIG -RA 15.0mph 9°C 7°C 9.0°C
07/01/23 19:20 EGSH 071920Z 20014G24KT 150V240 9999 -RA SCT030 BKN043 10/07 Q0994 NOSIG -RA 16.1mph 27.6mph 10°C 7°C 10.0°C
07/01/23 18:50 EGSH 071850Z 18014KT 140V220 9999 -RA FEW024 BKN044 09/07 Q0994 RERA TEMPO SHRA -RA 16.1mph 9°C 7°C 9.0°C
07/01/23 18:20 EGSH 071820Z 18011KT 140V220 9000 -RA FEW021 10/08 Q0995 TEMPO SHRA -RA 12.7mph 10°C 8°C 10.4°C
07/01/23 17:50 EGSH 071750Z 17011KT 130V230 9000 FEW011 BKN015 BKN020 10/08 Q0994 TEMPO SHRA BKN010 12.7mph 10°C 8°C 10.4°C
07/01/23 17:20 EGSH 071720Z 18010KT 140V220 9000 FEW011 BKN015 BKN020 11/09 Q0995 11.5mph 11°C 9°C 11.8°C
07/01/23 16:50 EGSH 071650Z 18011KT 110V220 9000 FEW011 BKN015 BKN020 11/08 Q0995 NOSIG 12.7mph 11°C 8°C 11.4°C
07/01/23 15:50 EGSH 071550Z 17012KT 110V220 9000 -DZ FEW006 SCT013 BKN017 10/08 Q0995 TEMPO BKN013 -DZ 13.8mph 10°C 8°C 10.4°C
07/01/23 15:50 EGSH 071550Z 17012KT 110V220 9000 -DZ FEW006 SCT013 BKN017 10/08 Q0995 -DZ 13.8mph 10°C 8°C 10.4°C
07/01/23 14:50 EGSH 071450Z 17012G22KT 110V220 9999 -DZ OVC011 10/08 Q0996 TEMPO SHRA -DZ 13.8mph 25.3mph 10°C 8°C 10.4°C
07/01/23 14:20 EGSH 071420Z 17014G24KT 110V230 9999 -DZ OVC011 10/08 Q0996 TEMPO SCT010 -DZ 16.1mph 27.6mph 10°C 8°C 10.4°C
07/01/23 13:50 EGSH 071350Z 17012KT 120V220 9999 -DZ FEW010 BKN014 10/08 Q0997 TEMPO BKN012 -DZ 13.8mph 10°C 8°C 10.4°C
07/01/23 12:50 EGSH 071250Z 17014KT 140V220 9999 -DZ FEW012 BKN015 10/08 Q0998 TEMPO BKN012 -DZ 16.1mph 10°C 8°C 10.4°C
07/01/23 12:20 EGSH 071220Z 17014G24KT 130V220 9999 SCT017 OVC020 10/08 Q0998 TEMPO BKN012 16.1mph 27.6mph 10°C 8°C 10.4°C
07/01/23 11:50 EGSH 071150Z 17014G26KT 120V230 9999 SCT017 BKN025 11/08 Q0999 NOSIG 16.1mph 29.9mph 11°C 8°C 11.4°C
07/01/23 11:20 EGSH 071120Z 17016G32KT 120V220 9999 FEW020 SCT037 11/07 Q0999 TEMPO RA 18.4mph 36.8mph 11°C 7°C 11.0°C
07/01/23 10:50 EGSH 071050Z 17016G27KT 130V220 9999 FEW015 SCT023 11/07 Q1000 TEMPO RA 18.4mph 31.1mph 11°C 7°C 11.0°C
07/01/23 10:20 EGSH 071020Z 17013G31KT 120V220 9999 FEW014 SCT040 11/07 Q1000 TEMPO RA BKN014 15.0mph 35.7mph 11°C 7°C 11.0°C
07/01/23 09:50 EGSH 070950Z 17016KT 110V230 9999 FEW014 SCT040 11/07 Q1000 TEMPO RA BKN014 18.4mph 11°C 7°C 11.0°C
07/01/23 09:20 EGSH 070920Z 17013G25KT 130V230 9999 FEW014 SCT049 11/07 Q1001 TEMPO RA BKN014 15.0mph 28.8mph 11°C 7°C 11.0°C
07/01/23 08:50 EGSH 070850Z 17014KT 120V220 9999 FEW014 SCT049 11/07 Q1001 TEMPO BKN014 16.1mph 11°C 7°C 11.0°C
07/01/23 08:20 EGSH 070820Z 17014G26KT 130V230 9999 FEW014 SCT049 11/07 Q1002 TEMPO BKN014 16.1mph 29.9mph 11°C 7°C 11.0°C
07/01/23 07:50 EGSH 070750Z 17015G30KT 120V220 9999 FEW014 11/07 Q1002 TEMPO BKN014 17.3mph 34.5mph 11°C 7°C 11.0°C
07/01/23 07:20 EGSH 070720Z 18014G24KT 130V230 9999 BKN017 11/08 Q1003 TEMPO BKN014 16.1mph 27.6mph 11°C 8°C 11.4°C
07/01/23 06:50 EGSH 070650Z 17015G28KT 110V220 9999 SCT018 BKN031 11/08 Q1003 TEMPO BKN014 17.3mph 32.2mph 11°C 8°C 11.4°C
07/01/23 06:20 EGSH 070620Z 17015KT 120V230 9999 SCT018 BKN031 11/08 Q1004 TEMPO BKN014 17.3mph 11°C 8°C 11.4°C
07/01/23 05:50 EGSH 070550Z 18013KT 140V230 9999 SCT018 BKN031 11/09 Q1004 TEMPO BKN014 15.0mph 11°C 9°C 11.8°C